Time;durP1;ratioP1;P1;durP2;ratioP2;P2;SDS_P1;SDS_P2;PMS_P1;PMS_P2;Temp;Humidity;BMP_temperature;BMP_pressure;BME280_temperature;BME280_humidity;BME280_pressure;Samples;Min_cycle;Max_cycle;Signal;HPM_P1;HPM_P2
2024/01/02 00:03:39;;;;;;;2.63;1.00;;;;;;;4.97;90.86;149919.38;13047544;22;20023;-82
2024/01/02 00:08:41;;;;;;;3.17;0.73;;;;;;;4.98;90.75;149920.66;13042712;22;20061;-82
2024/01/02 00:13:43;;;;;;;3.63;0.80;;;;;;;4.98;91.90;149921.94;13039741;22;20023;-83
2024/01/02 00:18:44;;;;;;;4.60;0.70;;;;;;;5.08;90.83;149946.38;13067785;22;20016;-83
2024/01/02 00:23:46;;;;;;;2.72;0.75;;;;;;;5.13;90.39;149959.22;13070500;22;20112;-82
2024/01/02 00:28:48;;;;;;;2.85;1.08;;;;;;;5.11;90.70;149952.81;13050365;22;20023;-81
2024/01/02 00:33:50;;;;;;;0.73;0.50;;;;;;;5.26;89.29;149991.38;13067552;22;20019;-81
2024/01/02 00:38:52;;;;;;;3.00;0.70;;;;;;;5.36;88.49;150017.13;13093631;22;20015;-83
2024/01/02 00:43:54;;;;;;;4.80;0.68;;;;;;;5.28;88.77;149996.53;13063991;22;20026;-80
2024/01/02 00:48:56;;;;;;;2.67;0.85;;;;;;;5.23;89.24;149983.69;13073496;22;20019;-81
2024/01/02 00:53:59;;;;;;;1.48;0.50;;;;;;;5.16;89.72;149965.66;13071593;22;20026;-81
2024/01/02 00:59:01;;;;;;;2.60;0.55;;;;;;;5.23;89.96;149983.69;13072491;22;20026;-83
2024/01/02 01:04:03;;;;;;;2.30;0.50;;;;;;;5.28;89.99;149997.81;13073544;22;20076;-82
2024/01/02 01:09:05;;;;;;;6.03;0.75;;;;;;;5.53;88.05;150059.50;13044767;22;20023;-82
2024/01/02 01:14:06;;;;;;;2.28;0.63;;;;;;;5.37;87.66;150019.69;13045022;22;20081;-82
2024/01/02 01:19:08;;;;;;;1.73;0.40;;;;;;;5.36;80.98;150015.78;13072111;22;20019;-82
2024/01/02 01:24:10;;;;;;;0.10;0.10;;;;;;;5.29;78.70;149999.09;13071773;22;20022;-82
2024/01/02 01:29:12;;;;;;;1.27;0.30;;;;;;;5.00;83.67;149925.78;13043831;22;20117;-82
2024/01/02 01:34:15;;;;;;;0.63;0.20;;;;;;;4.72;87.96;149855.09;13072520;22;20015;-80
2024/01/02 01:39:17;;;;;;;0.38;0.10;;;;;;;4.67;89.82;149843.53;13044467;22;20026;-81
2024/01/02 01:44:18;;;;;;;1.15;0.20;;;;;;;4.46;92.54;149790.84;13071927;22;20015;-81
2024/01/02 01:49:21;;;;;;;1.48;0.22;;;;;;;4.69;90.73;149848.72;13047084;22;20530;-80
2024/01/02 01:54:23;;;;;;;3.35;0.25;;;;;;;4.46;93.34;149790.84;13076756;22;20015;-81
2024/01/02 01:59:25;;;;;;;0.73;0.20;;;;;;;4.59;92.32;149822.97;13073139;22;20023;-81
2024/01/02 02:04:29;;;;;;;0.73;0.20;;;;;;;4.54;92.25;149810.13;13046700;22;20456;-80
2024/01/02 02:09:30;;;;;;;0.28;0.00;;;;;;;4.65;91.16;149838.44;13044312;22;20019;-81
2024/01/02 02:14:33;;;;;;;0.52;0.10;;;;;;;4.61;91.51;149826.84;13071754;22;20046;-81
2024/01/02 02:19:34;;;;;;;1.67;0.40;;;;;;;4.51;94.25;149803.69;13043417;22;20334;-81
2024/01/02 02:24:36;;;;;;;0.40;0.10;;;;;;;4.47;95.78;149793.44;13022141;22;20046;-81
2024/01/02 02:29:38;;;;;;;0.95;0.28;;;;;;;4.33;97.48;149756.16;13044129;22;20023;-80
2024/01/02 02:34:40;;;;;;;0.47;0.20;;;;;;;4.21;99.94;149726.63;13086230;22;20015;-79
2024/01/02 02:39:42;;;;;;;0.93;0.20;;;;;;;4.13;100.00;149706.06;13084924;22;20071;-83
2024/01/02 02:44:44;;;;;;;2.35;0.43;;;;;;;4.13;100.00;149707.34;13045030;22;20037;-81
2024/01/02 02:49:46;;;;;;;1.65;0.30;;;;;;;4.01;100.00;149677.78;13049052;22;20030;-80
2024/01/02 02:54:47;;;;;;;1.27;0.38;;;;;;;4.32;100.00;149754.88;13075951;22;20022;-81
2024/01/02 02:59:49;;;;;;;0.47;0.20;;;;;;;4.39;100.00;149771.59;13087174;22;20003;-81
2024/01/02 03:04:51;;;;;;;2.28;0.30;;;;;;;4.26;100.00;149739.47;13066047;22;20019;-81
2024/01/02 03:09:53;;;;;;;2.05;0.30;;;;;;;4.22;100.00;149730.47;13043500;22;20046;-81
2024/01/02 03:14:54;;;;;;;1.08;0.10;;;;;;;4.24;100.00;149734.31;13069487;22;20011;-81
2024/01/02 03:19:56;;;;;;;0.50;0.35;;;;;;;4.01;100.00;149677.78;13082803;22;20034;-80
2024/01/02 03:24:58;;;;;;;1.30;0.22;;;;;;;3.93;100.00;149655.97;13080027;22;20015;-80
2024/01/02 03:30:00;;;;;;;3.25;0.28;;;;;;;3.93;100.00;149657.22;13092448;22;20090;-80
2024/01/02 03:35:02;;;;;;;1.35;0.47;;;;;;;3.98;100.00;149670.06;13083568;22;20040;-81
2024/01/02 03:40:06;;;;;;;0.60;0.20;;;;;;;3.84;100.00;149632.84;13087967;22;20023;-80
2024/01/02 03:45:08;;;;;;;1.20;0.30;;;;;;;3.94;100.00;149659.84;13086535;22;20026;-82
2024/01/02 03:50:10;;;;;;;0.73;0.43;;;;;;;3.78;100.00;149618.72;13077288;22;20015;-81
2024/01/02 03:55:12;;;;;;;1.60;0.40;;;;;;;3.72;100.00;149604.63;13077281;22;20433;-82
2024/01/02 04:00:14;;;;;;;0.45;0.20;;;;;;;3.69;100.00;149596.91;13070309;22;20026;-81
2024/01/02 04:05:15;;;;;;;0.17;0.10;;;;;;;3.72;100.00;149603.34;13073063;22;20041;-81
2024/01/02 04:10:18;;;;;;;1.05;0.40;;;;;;;3.72;100.00;149604.63;13072590;22;20167;-80
2024/01/02 04:15:19;;;;;;;0.63;0.30;;;;;;;3.73;100.00;149605.88;13071688;22;20026;-81
2024/01/02 04:20:21;;;;;;;1.27;0.40;;;;;;;3.73;100.00;149605.88;13072234;22;20023;-81
2024/01/02 04:25:26;;;;;;;1.50;0.30;;;;;;;4.02;100.00;149680.34;13075447;22;20011;-82
2024/01/02 04:30:27;;;;;;;1.10;0.30;;;;;;;3.88;100.00;149643.13;13047602;22;20015;-82
2024/01/02 04:35:29;;;;;;;1.02;0.50;;;;;;;3.84;100.00;149634.13;13075349;22;20070;-82
2024/01/02 04:40:31;;;;;;;1.20;0.98;;;;;;;3.91;100.00;149650.84;13053179;22;20050;-82
2024/01/02 04:45:33;;;;;;;1.38;0.40;;;;;;;3.83;100.00;149630.28;13049741;22;20007;-82
2024/01/02 04:50:34;;;;;;;0.93;0.32;;;;;;;3.81;100.00;149626.44;13076393;22;20054;-82
2024/01/02 04:55:36;;;;;;;1.52;0.50;;;;;;;3.88;100.00;149644.41;13074651;22;20078;-82
2024/01/02 05:00:38;;;;;;;1.90;0.90;;;;;;;3.92;100.00;149653.41;13047204;22;20019;-84
2024/01/02 05:05:40;;;;;;;1.65;0.40;;;;;;;3.93;100.00;149655.97;13077962;22;20011;-83
2024/01/02 05:10:41;;;;;;;1.58;0.73;;;;;;;3.86;100.00;149639.28;13073642;22;20019;-83
2024/01/02 05:15:43;;;;;;;3.13;0.60;;;;;;;3.86;100.00;149638.00;13043537;22;20011;-82
2024/01/02 05:20:47;;;;;;;0.73;0.30;;;;;;;3.87;100.00;149640.56;13071395;22;20015;-81
2024/01/02 05:25:49;;;;;;;1.20;0.22;;;;;;;4.11;100.00;149702.19;13046743;22;20010;-81
2024/01/02 05:30:50;;;;;;;0.40;0.30;;;;;;;4.11;100.00;149700.91;13111031;22;19999;-81
2024/01/02 05:35:52;;;;;;;1.30;0.50;;;;;;;4.41;100.00;149776.72;13061136;22;20019;-80
2024/01/02 05:40:54;;;;;;;1.83;1.10;;;;;;;4.51;100.00;149802.41;13083421;22;20027;-82
2024/01/02 05:45:56;;;;;;;4.03;0.52;;;;;;;4.48;100.00;149796.00;13077571;22;20042;-80
2024/01/02 05:50:58;;;;;;;1.17;0.40;;;;;;;4.27;100.00;149742.03;13076435;22;20036;-81
2024/01/02 05:55:59;;;;;;;0.50;0.45;;;;;;;4.10;100.00;149698.34;13076532;22;20018;-81
2024/01/02 06:01:01;;;;;;;2.67;0.30;;;;;;;3.87;100.00;149640.56;13046845;22;20019;-82
2024/01/02 06:06:05;;;;;;;1.60;0.50;;;;;;;4.04;100.00;149685.50;13075836;22;20396;-82
2024/01/02 06:11:09;;;;;;;0.80;0.57;;;;;;;4.14;100.00;149708.63;13074816;22;20015;-81
2024/01/02 06:16:11;;;;;;;2.17;0.73;;;;;;;4.16;100.00;149715.09;13072700;22;20345;-81
2024/01/02 06:21:13;;;;;;;1.08;0.47;;;;;;;4.34;100.00;149758.72;13072986;22;20016;-82
2024/01/02 06:26:15;;;;;;;1.67;0.55;;;;;;;4.11;100.00;149702.19;13018995;22;20039;-81
2024/01/02 06:31:20;;;;;;;1.52;0.75;;;;;;;4.19;100.00;149721.47;13019370;22;20020;-82
2024/01/02 06:36:22;;;;;;;1.13;0.70;;;;;;;4.14;100.00;149708.63;13075074;22;20042;-81
2024/01/02 06:41:24;;;;;;;1.52;0.85;;;;;;;4.16;100.00;149713.75;13076828;22;20453;-81
2024/01/02 06:46:25;;;;;;;1.23;0.70;;;;;;;3.92;100.00;149653.41;13087557;22;20019;-80
2024/01/02 06:51:29;;;;;;;3.13;0.77;;;;;;;3.96;100.00;149664.97;13071683;22;20068;-82
2024/01/02 06:56:30;;;;;;;1.98;0.80;;;;;;;4.09;100.00;149695.78;13070595;22;20349;-81
2024/01/02 07:01:32;;;;;;;1.15;0.80;;;;;;;4.16;100.00;149713.75;13070376;22;20015;-83
2024/01/02 07:06:34;;;;;;;3.33;0.80;;;;;;;4.22;100.00;149730.47;13104640;22;20000;-82
2024/01/02 07:11:36;;;;;;;2.17;0.80;;;;;;;4.11;100.00;149702.19;13105493;22;20007;-82
2024/01/02 07:16:37;;;;;;;1.92;0.80;;;;;;;4.11;100.00;149702.19;13080564;22;20015;-82
2024/01/02 07:21:39;;;;;;;1.92;1.20;;;;;;;4.27;100.00;149742.03;13092697;22;20026;-82
2024/01/02 07:26:41;;;;;;;0.70;0.70;;;;;;;4.25;100.00;149736.88;13051409;22;20039;-82
2024/01/02 07:31:42;;;;;;;1.40;1.10;;;;;;;4.36;100.00;149763.88;13048264;22;20073;-84
2024/01/02 07:36:44;;;;;;;1.70;1.10;;;;;;;4.21;100.00;149726.63;13078666;22;20016;-83
2024/01/02 07:41:46;;;;;;;1.33;1.00;;;;;;;4.46;100.00;149790.84;13084582;22;20045;-82
2024/01/02 07:46:48;;;;;;;1.63;0.90;;;;;;;4.43;100.00;149783.16;13067470;22;20050;-83
2024/01/02 07:51:51;;;;;;;1.90;1.10;;;;;;;4.53;100.00;149808.84;13096589;22;20015;-82
2024/01/02 07:56:53;;;;;;;2.85;1.20;;;;;;;4.59;100.00;149821.69;13082447;22;20018;-80
2024/01/02 08:01:54;;;;;;;0.90;0.60;;;;;;;4.36;100.00;149765.16;13064425;22;20026;-83
2024/01/02 08:06:57;;;;;;;1.55;0.90;;;;;;;4.41;100.00;149778.00;13096449;22;20011;-83
2024/01/02 08:11:59;;;;;;;2.78;1.00;;;;;;;4.43;100.00;149781.88;13083281;22;20019;-82
2024/01/02 08:17:01;;;;;;;1.23;0.82;;;;;;;4.37;100.00;149767.72;13083844;22;20011;-83
2024/01/02 08:22:03;;;;;;;1.20;0.70;;;;;;;4.64;100.00;149834.53;13085627;22;20019;-82
2024/01/02 08:27:04;;;;;;;2.55;0.60;;;;;;;4.51;100.00;149803.69;13082549;22;20023;-83
2024/01/02 08:32:06;;;;;;;0.70;0.60;;;;;;;4.34;100.00;149760.03;13081207;22;20019;-81
2024/01/02 08:37:08;;;;;;;1.48;0.80;;;;;;;4.39;100.00;149772.88;13080402;22;20015;-82
2024/01/02 08:42:10;;;;;;;1.25;0.80;;;;;;;4.49;100.00;149797.28;13058182;22;20015;-81
2024/01/02 08:47:13;;;;;;;0.60;0.55;;;;;;;4.58;100.00;149820.41;13083086;22;20041;-82
2024/01/02 08:52:14;;;;;;;1.15;0.80;;;;;;;4.35;100.00;149762.59;13052851;22;20026;-80
2024/01/02 08:57:16;;;;;;;1.38;0.80;;;;;;;4.21;100.00;149726.63;13056526;22;20019;-81
2024/01/02 09:02:18;;;;;;;1.42;0.80;;;;;;;4.47;100.00;149793.44;13065944;22;20026;-82
2024/01/02 09:07:20;;;;;;;1.48;0.60;;;;;;;4.54;100.00;149811.41;13082213;22;20064;-82
2024/01/02 09:12:22;;;;;;;1.60;0.73;;;;;;;4.71;100.00;149852.56;13052811;22;20015;-82
2024/01/02 09:17:23;;;;;;;1.05;0.70;;;;;;;4.49;100.00;149797.28;13079426;22;20007;-82
2024/01/02 09:22:25;;;;;;;3.35;0.82;;;;;;;4.61;100.00;149826.84;13077234;22;20090;-82
2024/01/02 09:27:29;;;;;;;3.85;1.00;;;;;;;4.88;100.00;149894.97;13058697;22;20015;-83
2024/01/02 09:32:31;;;;;;;0.93;0.77;;;;;;;4.71;100.00;149853.81;13050226;22;20019;-83
2024/01/02 09:37:33;;;;;;;0.57;0.52;;;;;;;4.62;100.00;149830.69;13075260;22;20067;-84
2024/01/02 09:42:48;;;;;;;1.42;0.60;;;;;;;4.66;100.00;149839.69;13082965;22;20022;-81
2024/01/02 09:48:25;;;;;;;0.68;0.32;;;;;;;4.59;100.00;149821.69;13072230;22;20012;-82
2024/01/02 09:54:12;;;;;;;3.45;3.08;;;;;;;4.88;100.00;149894.97;13062270;22;20015;-79
2024/01/02 09:59:24;;;;;;;16.65;15.05;;;;;;;4.74;100.00;149860.28;13094303;22;20015;-80
2024/01/02 10:04:50;;;;;;;0.75;0.50;;;;;;;4.71;100.00;149853.81;13069266;22;20060;-83
2024/01/02 10:10:33;;;;;;;0.70;0.65;;;;;;;4.82;100.00;149880.78;13059906;22;20015;-80
2024/01/02 10:15:54;;;;;;;0.40;0.40;;;;;;;4.68;100.00;149844.81;13075283;22;20019;-82
2024/01/02 10:21:08;;;;;;;1.17;0.70;;;;;;;4.93;100.00;149909.09;13075107;22;20029;-80
2024/01/02 10:26:10;;;;;;;0.20;0.20;;;;;;;4.72;100.00;149856.38;13049566;22;20022;-81
2024/01/02 10:31:27;;;;;;;0.30;0.30;;;;;;;4.83;100.00;149882.13;13086749;22;20015;-80
2024/01/02 10:36:29;;;;;;;;;;;;;;;4.76;100.00;149865.41;13079789;22;20015;-80
2024/01/02 10:42:19;;;;;;;0.98;0.43;;;;;;;4.96;100.00;149916.84;13093981;22;19940;-80
2024/01/02 10:47:52;;;;;;;0.30;0.28;;;;;;;5.22;100.00;149982.41;13079547;22;20322;-81
2024/01/02 10:53:00;;;;;;;0.30;0.28;;;;;;;4.85;100.00;149887.25;13077279;22;20019;-81
2024/01/02 10:58:10;;;;;;;0.50;0.38;;;;;;;4.87;100.00;149893.69;13079382;22;20011;-81
2024/01/02 11:03:15;;;;;;;1.42;0.30;;;;;;;5.03;100.00;149933.53;13075751;22;20049;-81
2024/01/02 11:08:49;;;;;;;0.50;0.32;;;;;;;5.21;100.00;149978.50;13047256;22;20037;-80
2024/01/02 11:13:52;;;;;;;1.08;0.52;;;;;;;4.94;100.00;149911.66;13009212;22;20041;-81
2024/01/02 11:19:00;;;;;;;0.57;0.25;;;;;;;5.07;100.00;149945.09;13099410;22;20290;-79
2024/01/02 11:24:06;;;;;;;0.30;0.30;;;;;;;5.16;100.00;149966.94;13103115;22;20049;-79
2024/01/02 11:29:24;;;;;;;1.10;0.30;;;;;;;4.99;100.00;149923.22;13105371;22;20083;-79
2024/01/02 11:34:26;;;;;;;0.52;0.30;;;;;;;5.21;100.00;149979.78;13107488;22;19999;-82
2024/01/02 11:39:53;;;;;;;0.65;0.30;;;;;;;5.19;100.00;149973.41;13105249;22;20030;-78
2024/01/02 11:45:09;;;;;;;1.77;0.50;;;;;;;5.21;100.00;149978.50;13101828;22;20019;-80
2024/01/02 11:50:15;;;;;;;0.30;0.30;;;;;;;5.12;100.00;149955.38;13102739;22;20015;-79
2024/01/02 11:55:38;;;;;;;0.30;0.30;;;;;;;4.96;100.00;149916.84;13107167;22;20066;-79
2024/01/02 12:01:01;;;;;;;0.47;0.20;;;;;;;5.23;100.00;149984.97;13080769;22;20019;-80
2024/01/02 12:06:09;;;;;;;0.82;0.47;;;;;;;5.04;100.00;149936.06;13068997;22;20018;-80
2024/01/02 12:11:17;;;;;;;1.05;0.30;;;;;;;5.06;100.00;149942.53;13087432;22;20019;-81
2024/01/02 12:16:20;;;;;;;0.30;0.30;;;;;;;4.84;100.00;149885.97;13081634;22;20015;-81
2024/01/02 12:21:25;;;;;;;1.45;0.95;;;;;;;4.77;100.00;149867.94;13087959;22;20036;-81
2024/01/02 12:26:33;;;;;;;10.30;3.22;;;;;;;4.99;100.00;149923.22;13083742;22;20011;-81
2024/01/02 12:31:41;;;;;;;1.00;0.52;;;;;;;4.73;100.00;149858.94;13056047;22;20019;-80
2024/01/02 12:36:47;;;;;;;0.57;0.38;;;;;;;4.79;100.00;149873.13;13080148;22;20338;-80
2024/01/02 12:41:53;;;;;;;0.38;0.28;;;;;;;4.83;100.00;149882.13;13093713;22;20034;-83
2024/01/02 12:47:10;;;;;;;0.50;0.40;;;;;;;4.83;100.00;149883.41;13094091;22;20011;-79
2024/01/02 12:52:19;;;;;;;0.30;0.30;;;;;;;4.76;100.00;149866.66;13077879;22;20441;-79
2024/01/02 12:57:20;;;;;;;0.68;0.40;;;;;;;4.71;100.00;149852.56;13078448;22;20011;-82
2024/01/02 13:02:22;;;;;;;0.63;0.22;;;;;;;4.71;100.00;149853.81;13083291;22;20026;-80
2024/01/02 13:07:25;;;;;;;0.28;0.20;;;;;;;4.61;100.00;149826.84;13056219;22;20384;-79
2024/01/02 13:12:27;;;;;;;0.73;0.52;;;;;;;4.78;100.00;149871.84;13081620;22;20037;-80
2024/01/02 13:17:30;;;;;;;2.83;0.73;;;;;;;4.87;100.00;149892.38;13058413;22;20012;-80
2024/01/02 13:22:35;;;;;;;1.50;0.75;;;;;;;4.80;100.00;149875.69;13070584;22;20037;-81
2024/01/02 13:27:37;;;;;;;0.40;0.40;;;;;;;4.81;100.00;149879.53;13091109;22;20349;-80
2024/01/02 13:32:39;;;;;;;0.63;0.60;;;;;;;4.77;100.00;149869.22;13077875;22;20023;-80
2024/01/02 13:37:42;;;;;;;0.93;0.70;;;;;;;4.83;100.00;149883.41;13081144;22;20022;-80
2024/01/02 13:42:44;;;;;;;0.47;0.45;;;;;;;4.81;100.00;149879.53;13071860;22;20014;-81
2024/01/02 13:47:45;;;;;;;0.70;0.52;;;;;;;4.73;100.00;149857.66;13048113;22;20019;-79
2024/01/02 13:52:48;;;;;;;0.50;0.50;;;;;;;4.97;100.00;149919.38;13047733;22;20020;-79
2024/01/02 13:57:51;;;;;;;0.68;0.57;;;;;;;4.72;100.00;149855.09;13048645;22;20046;-82
2024/01/02 14:02:56;;;;;;;;;;;;;;;4.80;100.00;149875.69;13077469;22;20019;-81
2024/01/02 14:07:59;;;;;;;0.82;0.60;;;;;;;5.06;100.00;149942.53;13075469;22;20018;-80
2024/01/02 14:13:01;;;;;;;0.68;0.60;;;;;;;4.92;100.00;149906.53;13074676;22;20023;-81
2024/01/02 14:18:04;;;;;;;6.57;5.80;;;;;;;5.01;100.00;149929.69;13047437;22;20379;-81
2024/01/02 14:23:29;;;;;;;1.50;0.80;;;;;;;5.14;100.00;149960.53;13018801;22;20023;-82
2024/01/02 14:28:42;;;;;;;1.60;0.60;;;;;;;5.15;100.00;149964.38;13073876;22;20011;-82
2024/01/02 14:34:32;;;;;;;0.85;0.77;;;;;;;4.83;100.00;149883.41;13071271;22;20023;-81
2024/01/02 14:39:58;;;;;;;1.40;0.90;;;;;;;5.01;100.00;149928.41;12994699;22;20410;-83
2024/01/02 14:45:08;;;;;;;1.58;0.80;;;;;;;5.14;100.00;149960.53;13080968;22;20053;-80
2024/01/02 14:50:21;;;;;;;1.30;0.95;;;;;;;4.92;100.00;149906.53;13034129;22;20023;-82
2024/01/02 14:55:36;;;;;;;1.60;0.98;;;;;;;4.86;100.00;149889.81;13083496;22;20015;-80
2024/01/02 15:00:45;;;;;;;1.80;1.08;;;;;;;4.70;100.00;149850.00;13052050;22;20074;-81
2024/01/02 15:06:04;;;;;;;0.95;0.73;;;;;;;4.95;100.00;149912.94;13079165;22;20015;-82
2024/01/02 15:11:35;;;;;;;1.05;0.95;;;;;;;5.06;100.00;149942.53;13045174;22;20019;-82
2024/01/02 15:17:00;;;;;;;1.60;1.30;;;;;;;5.13;100.00;149957.94;13071056;22;20022;-82
2024/01/02 15:22:10;;;;;;;1.13;1.02;;;;;;;5.20;100.00;149975.94;13019030;22;1159570;-81
2024/01/02 15:27:15;;;;;;;1.40;1.17;;;;;;;4.92;100.00;149906.53;13072000;22;20011;-80
2024/01/02 15:32:17;;;;;;;1.38;1.27;;;;;;;5.03;100.00;149934.78;13084415;22;20019;-79
2024/01/02 15:37:29;;;;;;;1.98;1.50;;;;;;;5.13;100.00;149957.94;13100487;22;20007;-80
2024/01/02 15:42:41;;;;;;;1.85;1.20;;;;;;;5.20;100.00;149975.94;13078751;22;20026;-82
2024/01/02 15:47:46;;;;;;;1.80;1.50;;;;;;;5.12;100.00;149956.66;13078478;22;20015;-80
2024/01/02 15:52:51;;;;;;;2.53;1.73;;;;;;;4.98;100.00;149921.94;13050052;22;20015;-82
2024/01/02 15:57:57;;;;;;;2.28;1.55;;;;;;;5.11;100.00;149954.09;13072976;22;20061;-79
2024/01/02 16:03:24;;;;;;;1.40;1.17;;;;;;;5.30;100.00;150002.94;13047449;22;20059;-81
2024/01/02 16:08:26;;;;;;;;;;;;;;;5.66;100.00;150091.66;13049346;22;20019;-81
2024/01/02 16:13:34;;;;;;;0.52;0.40;;;;;;;6.06;100.00;150193.34;13059864;22;19964;-81
2024/01/02 16:18:57;;;;;;;1.23;0.60;;;;;;;6.68;100.00;150350.34;13083677;22;20019;-81
2024/01/02 16:24:17;;;;;;;0.93;0.40;;;;;;;6.92;100.00;150410.88;13091312;22;20015;-82
2024/01/02 16:29:44;;;;;;;0.32;0.32;;;;;;;6.95;100.00;150417.28;13081372;22;20015;-79
2024/01/02 16:35:06;;;;;;;0.90;0.60;;;;;;;6.90;100.00;150405.72;13048909;22;20019;-84
2024/01/02 16:40:10;;;;;;;0.80;0.70;;;;;;;6.78;100.00;150376.13;13074058;22;20284;-81
2024/01/02 16:45:12;;;;;;;0.82;0.73;;;;;;;6.86;100.00;150394.13;13072964;22;20015;-81
2024/01/02 16:50:13;;;;;;;0.52;0.50;;;;;;;6.83;100.00;150387.72;13070154;22;20345;-80
2024/01/02 16:55:18;;;;;;;1.10;0.60;;;;;;;7.10;100.00;150454.66;13077556;22;20019;-81
2024/01/02 17:00:21;;;;;;;0.60;0.30;;;;;;;7.17;100.00;150472.66;13082388;22;20012;-82
2024/01/02 17:05:32;;;;;;;0.32;0.30;;;;;;;7.17;100.00;150474.00;13075822;22;20023;-82
2024/01/02 17:10:35;;;;;;;0.70;0.32;;;;;;;7.12;100.00;150459.78;13076473;22;20015;-81
2024/01/02 17:15:37;;;;;;;0.38;0.30;;;;;;;7.11;100.00;150457.22;13050442;22;20077;-82
2024/01/02 17:20:39;;;;;;;0.17;0.17;;;;;;;7.36;100.00;150521.63;13051507;22;20439;-82
2024/01/02 17:25:43;;;;;;;0.40;0.20;;;;;;;7.67;100.00;150600.22;13073974;22;20015;-79
2024/01/02 17:30:44;;;;;;;0.10;0.10;;;;;;;7.92;100.00;150663.31;13075348;22;20019;-80
2024/01/02 17:35:46;;;;;;;0.22;0.17;;;;;;;8.01;100.00;150686.53;13084658;22;20016;-81
2024/01/02 17:40:48;;;;;;;0.28;0.17;;;;;;;8.05;100.00;150696.81;13052772;22;20035;-81
2024/01/02 17:45:51;;;;;;;0.10;0.10;;;;;;;7.97;100.00;150676.22;13074433;22;20461;-81
2024/01/02 17:50:59;;;;;;;0.20;0.20;;;;;;;8.03;100.00;150691.69;13066030;22;20030;-83
2024/01/02 17:56:12;;;;;;;0.45;0.15;;;;;;;7.95;100.00;150671.06;13056270;22;20065;-80
2024/01/02 18:01:25;;;;;;;0.20;0.20;;;;;;;7.82;100.00;150638.84;13081687;22;20041;-81
2024/01/02 18:06:48;;;;;;;0.28;0.28;;;;;;;7.71;100.00;150609.25;13089415;22;20008;-81
2024/01/02 18:11:50;;;;;;;0.20;0.20;;;;;;;7.62;100.00;150587.34;13015574;22;20049;-82
2024/01/02 18:17:07;;;;;;;0.30;0.20;;;;;;;7.66;100.00;150597.66;13051248;22;20016;-82
2024/01/02 18:22:20;;;;;;;0.47;0.40;;;;;;;7.64;100.00;150591.19;13074700;22;20031;-81
2024/01/02 18:27:47;;;;;;;0.60;0.40;;;;;;;7.43;100.00;150538.34;13078520;22;20115;-81
2024/01/02 18:33:10;;;;;;;1.45;1.00;;;;;;;7.33;100.00;150515.16;13051389;22;20046;-82
2024/01/02 18:38:24;;;;;;;1.60;1.00;;;;;;;7.40;100.00;150531.94;13074742;22;20039;-83
2024/01/02 18:43:46;;;;;;;1.00;0.70;;;;;;;7.42;100.00;150537.06;13074264;22;20015;-82
2024/01/02 18:48:53;;;;;;;0.90;0.60;;;;;;;7.32;100.00;150512.59;13076307;22;20019;-81
2024/01/02 18:54:18;;;;;;;0.68;0.40;;;;;;;7.38;100.00;150525.47;13076975;22;20445;-81
2024/01/02 18:59:20;;;;;;;0.73;0.30;;;;;;;7.50;100.00;150556.41;13080902;22;20015;-82
2024/01/02 19:04:23;;;;;;;0.38;0.30;;;;;;;7.41;100.00;150533.22;13054948;22;20019;-82
2024/01/02 19:09:26;;;;;;;0.80;0.40;;;;;;;7.49;100.00;150553.84;13090454;22;20011;-81
2024/01/02 19:14:28;;;;;;;0.85;0.50;;;;;;;7.30;100.00;150507.47;13058949;22;20075;-83
2024/01/02 19:19:35;;;;;;;0.47;0.25;;;;;;;7.46;100.00;150547.38;13092904;22;20003;-83
2024/01/02 19:24:40;;;;;;;0.57;0.50;;;;;;;7.26;100.00;150495.84;13088287;22;20019;-82
2024/01/02 19:29:43;;;;;;;2.30;1.58;;;;;;;7.12;100.00;150459.78;13082361;22;20015;-83
2024/01/02 19:34:47;;;;;;;1.88;1.55;;;;;;;7.19;100.00;150477.84;13099241;22;20144;-83
2024/01/02 19:39:48;;;;;;;2.08;1.88;;;;;;;6.97;100.00;150422.47;13103245;22;20057;-83
2024/01/02 19:44:50;;;;;;;2.55;1.73;;;;;;;6.83;100.00;150389.00;13100076;22;20023;-80
2024/01/02 19:49:53;;;;;;;2.50;1.92;;;;;;;6.56;100.00;150319.50;13097714;22;20018;-83
2024/01/02 19:54:55;;;;;;;2.80;2.05;;;;;;;6.40;100.00;150278.28;13086971;22;20011;-82
2024/01/02 19:59:57;;;;;;;2.38;1.70;;;;;;;6.55;100.00;150316.88;13086367;22;20018;-82
2024/01/02 20:04:59;;;;;;;2.38;1.70;;;;;;;6.48;100.00;150298.91;13084146;22;20070;-83
2024/01/02 20:10:24;;;;;;;1.77;1.10;;;;;;;6.32;100.00;150260.25;13055564;22;20092;-83
2024/01/02 20:15:32;;;;;;;2.58;1.30;;;;;;;6.39;100.00;150275.72;13064187;22;20079;-82
2024/01/02 20:20:39;;;;;;;2.15;1.63;;;;;;;6.37;100.00;150271.84;13081566;22;20011;-81
2024/01/02 20:25:44;;;;;;;2.80;1.90;;;;;;;6.31;100.00;150256.41;13055024;22;20023;-81
2024/01/02 20:30:47;;;;;;;3.70;2.88;;;;;;;6.32;100.00;150260.25;13082159;22;20011;-82
2024/01/02 20:35:49;;;;;;;1.48;1.27;;;;;;;6.46;100.00;150295.03;13079903;22;20016;-83
2024/01/02 20:40:51;;;;;;;0.77;0.50;;;;;;;6.69;100.00;150351.69;13080045;22;20043;-81
2024/01/02 20:45:54;;;;;;;0.30;0.30;;;;;;;6.78;100.00;150374.84;13084877;22;20016;-82
2024/01/02 20:50:58;;;;;;;0.40;0.25;;;;;;;7.01;100.00;150432.78;13085639;22;20069;-82
2024/01/02 20:56:00;;;;;;;0.40;0.40;;;;;;;7.17;100.00;150474.00;13061028;22;20109;-81
2024/01/02 21:01:01;;;;;;;1.63;0.30;;;;;;;7.34;100.00;150517.75;13087278;22;20011;-84
2024/01/02 21:06:19;;;;;;;0.50;0.30;;;;;;;7.30;100.00;150506.16;13055198;22;20016;-84
2024/01/02 21:11:23;;;;;;;0.30;0.30;;;;;;;7.09;100.00;150453.38;13083429;22;20423;-84
2024/01/02 21:16:25;;;;;;;0.90;0.60;;;;;;;7.00;100.00;150430.22;13081750;22;20022;-83
2024/01/02 21:21:41;;;;;;;0.40;0.40;;;;;;;6.99;100.00;150428.88;13080147;22;20011;-84
2024/01/02 21:26:43;;;;;;;0.50;0.30;;;;;;;7.08;100.00;150452.09;13055260;22;20452;-82
2024/01/02 21:31:45;;;;;;;0.55;0.50;;;;;;;6.96;100.00;150421.19;13079527;22;20070;-84
2024/01/02 21:36:48;;;;;;;0.90;0.68;;;;;;;6.85;100.00;150392.84;13082304;22;20019;-84
2024/01/02 21:41:50;;;;;;;1.40;0.73;;;;;;;6.80;100.00;150379.97;13083234;22;20391;-83
2024/01/02 21:46:57;;;;;;;1.38;0.82;;;;;;;6.69;100.00;150351.69;13093578;22;20067;-84
2024/01/02 21:52:40;;;;;;;1.88;1.60;;;;;;;6.74;100.00;150364.53;13094961;22;20019;-83
2024/01/02 21:57:53;;;;;;;2.58;1.50;;;;;;;6.65;100.00;150341.38;13085183;22;20011;-83
2024/01/02 22:03:09;;;;;;;2.25;1.33;;;;;;;6.72;100.00;150360.66;13083369;22;20022;-82
2024/01/02 22:08:26;;;;;;;1.35;1.00;;;;;;;6.80;100.00;150381.25;13081674;22;20045;-82
2024/01/02 22:13:54;;;;;;;0.20;0.20;;;;;;;7.14;100.00;150464.97;13053817;22;20124;-84
2024/01/02 22:19:06;;;;;;;0.80;0.20;;;;;;;7.25;100.00;150493.28;13078906;22;20018;-83
2024/01/02 22:24:42;;;;;;;0.43;0.10;;;;;;;7.71;100.00;150609.25;13079578;22;20026;-83
2024/01/02 22:29:46;;;;;;;0.20;0.10;;;;;;;7.89;100.00;150655.59;13055941;22;20039;-82
2024/01/02 22:34:50;;;;;;;0.25;0.00;;;;;;;8.07;100.00;150702.00;13089176;22;20246;-82
2024/01/02 22:39:54;;;;;;;0.10;0.10;;;;;;;8.02;100.00;150689.13;13085094;22;20023;-82
2024/01/02 22:44:56;;;;;;;0.10;0.10;;;;;;;8.11;100.00;150711.03;13088667;22;20049;-83
2024/01/02 22:49:57;;;;;;;0.05;0.00;;;;;;;8.20;100.00;150734.22;13077031;22;20019;-82
2024/01/02 22:54:59;;;;;;;0.00;0.00;;;;;;;8.55;100.00;150823.22;13079715;22;20322;-82
2024/01/02 23:00:14;;;;;;;0.05;0.05;;;;;;;8.88;100.00;150905.72;13085554;22;20453;-83
2024/01/02 23:05:16;;;;;;;0.00;0.00;;;;;;;8.88;100.00;150905.72;13055709;22;20079;-83
2024/01/02 23:10:19;;;;;;;0.00;0.00;;;;;;;9.03;100.00;150943.09;13079136;22;20035;-82
2024/01/02 23:15:20;;;;;;;0.00;0.00;;;;;;;9.00;100.00;150935.38;13078028;22;20353;-83
2024/01/02 23:20:28;;;;;;;0.00;0.00;;;;;;;9.06;100.00;150952.13;13078505;22;20011;-82
2024/01/02 23:25:33;;;;;;;0.35;0.00;;;;;;;9.06;100.00;150952.13;13078990;22;20015;-81
2024/01/02 23:30:34;;;;;;;0.75;0.00;;;;;;;9.02;100.00;150940.53;13077178;22;20026;-80
2024/01/02 23:35:38;;;;;;;0.40;0.10;;;;;;;8.90;100.00;150910.88;13081721;22;20023;-82